Time,TemperatureF,DewpointF,PressureIn,WindDirection,WindDirectionDegrees,WindSpeedMPH,WindSpeedGustMPH,Humidity,HourlyPrecipIn,Conditions,Clouds,dailyrainin,SoftwareType,DateUTC
2013-07-22 00:01:00,64.0,47.0,-100.00,West,276,3.0,5.0,55,0.00,,,0.00,,2013-07-22 06:01:00,
2013-07-22 00:11:00,64.0,47.0,-100.00,West,276,3.0,5.0,55,0.00,,,0.00,,2013-07-22 06:11:00,
2013-07-22 00:22:00,64.0,47.0,-100.00,West,276,3.0,5.0,55,0.00,,,0.00,,2013-07-22 06:22:00,
2013-07-22 00:33:00,64.0,47.0,-100.00,West,276,3.0,5.0,55,0.00,,,0.00,,2013-07-22 06:33:00,
2013-07-22 01:01:00,64.0,51.0,-100.00,WNW,282,3.0,4.0,62,0.00,,,0.00,,2013-07-22 07:01:00,
2013-07-22 01:11:00,64.0,51.0,-100.00,WNW,282,3.0,4.0,62,0.00,,,0.00,,2013-07-22 07:11:00,
2013-07-22 01:22:00,64.0,51.0,-100.00,WNW,282,3.0,4.0,62,0.00,,,0.00,,2013-07-22 07:22:00,
2013-07-22 01:33:00,64.0,51.0,-100.00,WNW,282,3.0,4.0,62,0.00,,,0.00,,2013-07-22 07:33:00,
2013-07-22 01:53:00,61.0,48.0,-100.00,SW,222,4.0,6.0,62,0.00,,,0.00,,2013-07-22 07:53:00,
2013-07-22 02:02:00,61.0,48.0,-100.00,SW,222,4.0,6.0,62,0.00,,,0.00,,2013-07-22 08:02:00,
2013-07-22 02:11:00,61.0,48.0,-100.00,SW,222,4.0,6.0,62,0.00,,,0.00,,2013-07-22 08:11:00,
2013-07-22 02:22:00,61.0,48.0,-100.00,SW,222,4.0,6.0,62,0.00,,,0.00,,2013-07-22 08:22:00,
2013-07-22 02:32:00,61.0,48.0,-100.00,SW,222,4.0,6.0,62,0.00,,,0.00,,2013-07-22 08:32:00,
2013-07-22 03:02:00,60.0,49.0,-100.00,SSW,194,3.0,5.0,67,0.00,,,0.00,,2013-07-22 09:02:00,
2013-07-22 03:11:00,60.0,49.0,-100.00,SSW,194,3.0,5.0,67,0.00,,,0.00,,2013-07-22 09:11:00,
2013-07-22 03:22:00,60.0,49.0,-100.00,SSW,194,3.0,5.0,67,0.00,,,0.00,,2013-07-22 09:22:00,
2013-07-22 03:33:00,60.0,49.0,-100.00,SSW,194,3.0,5.0,67,0.00,,,0.00,,2013-07-22 09:33:00,
2013-07-22 04:02:00,59.0,48.0,-100.00,South,188,3.0,5.0,68,0.00,,,0.00,,2013-07-22 10:02:00,
2013-07-22 04:11:00,59.0,48.0,-100.00,South,188,3.0,5.0,68,0.00,,,0.00,,2013-07-22 10:11:00,
2013-07-22 04:22:00,59.0,48.0,-100.00,South,188,3.0,5.0,68,0.00,,,0.00,,2013-07-22 10:22:00,
2013-07-22 04:32:00,59.0,48.0,-100.00,South,188,3.0,5.0,68,0.00,,,0.00,,2013-07-22 10:32:00,
2013-07-22 05:01:00,58.0,48.0,-100.00,South,173,3.0,5.0,70,0.00,,,0.00,,2013-07-22 11:01:00,
2013-07-22 05:11:00,58.0,48.0,-100.00,South,173,3.0,5.0,70,0.00,,,0.00,,2013-07-22 11:11:00,
2013-07-22 05:23:00,58.0,48.0,-100.00,South,173,3.0,5.0,70,0.00,,,0.00,,2013-07-22 11:23:00,
2013-07-22 05:32:00,58.0,48.0,-100.00,South,173,3.0,5.0,70,0.00,,,0.00,,2013-07-22 11:32:00,
2013-07-22 06:02:00,59.0,48.0,-100.00,South,179,4.0,6.0,66,0.00,,,0.00,,2013-07-22 12:02:00,
2013-07-22 06:11:00,59.0,48.0,-100.00,South,179,4.0,6.0,66,0.00,,,0.00,,2013-07-22 12:11:00,
2013-07-22 06:22:00,59.0,48.0,-100.00,South,179,4.0,6.0,66,0.00,,,0.00,,2013-07-22 12:22:00,
2013-07-22 06:32:00,59.0,48.0,-100.00,South,179,4.0,6.0,66,0.00,,,0.00,,2013-07-22 12:32:00,
2013-07-22 07:01:00,58.0,47.0,-100.00,South,191,4.0,6.0,68,0.00,,,0.00,,2013-07-22 13:01:00,
2013-07-22 07:11:00,58.0,47.0,-100.00,South,191,4.0,6.0,68,0.00,,,0.00,,2013-07-22 13:11:00,
2013-07-22 07:22:00,58.0,47.0,-100.00,South,191,4.0,6.0,68,0.00,,,0.00,,2013-07-22 13:22:00,
2013-07-22 07:32:00,58.0,47.0,-100.00,South,191,4.0,6.0,68,0.00,,,0.00,,2013-07-22 13:32:00,
2013-07-22 08:01:00,66.0,50.0,-100.00,SSE,166,4.0,6.0,57,0.00,,,0.00,,2013-07-22 14:01:00,
2013-07-22 08:11:00,66.0,50.0,-100.00,SSE,166,4.0,6.0,57,0.00,,,0.00,,2013-07-22 14:11:00,
2013-07-22 08:22:00,66.0,50.0,-100.00,SSE,166,4.0,6.0,57,0.00,,,0.00,,2013-07-22 14:22:00,
2013-07-22 08:32:00,66.0,50.0,-100.00,SSE,166,4.0,6.0,57,0.00,,,0.00,,2013-07-22 14:32:00,
2013-07-22 09:11:00,74.0,51.0,-100.00,SSE,151,5.0,7.0,45,-99.99,,,0.00,,2013-07-22 15:11:00,
2013-07-22 09:22:00,74.0,51.0,-100.00,SSE,151,5.0,7.0,45,-99.99,,,0.00,,2013-07-22 15:22:00,
2013-07-22 09:33:00,74.0,51.0,-100.00,SSE,151,5.0,7.0,45,-99.99,,,0.00,,2013-07-22 15:33:00,
2013-07-22 10:01:00,75.0,50.0,-100.00,East,100,3.0,8.0,42,0.00,,,0.00,,2013-07-22 16:01:00,
2013-07-22 10:11:00,75.0,50.0,-100.00,East,100,3.0,8.0,42,0.00,,,0.00,,2013-07-22 16:11:00,
2013-07-22 10:21:00,75.0,50.0,-100.00,East,100,3.0,8.0,42,0.00,,,0.00,,2013-07-22 16:21:00,
2013-07-22 10:32:00,75.0,50.0,-100.00,East,100,3.0,8.0,42,0.00,,,0.00,,2013-07-22 16:32:00,
2013-07-22 11:01:00,80.0,51.0,-100.00,ENE,60,5.0,9.0,37,0.00,,,0.00,,2013-07-22 17:01:00,
2013-07-22 11:11:00,80.0,51.0,-100.00,ENE,60,5.0,9.0,37,0.00,,,0.00,,2013-07-22 17:11:00,
2013-07-22 11:23:00,80.0,51.0,-100.00,ENE,60,5.0,9.0,37,0.00,,,0.00,,2013-07-22 17:23:00,
2013-07-22 11:32:00,80.0,51.0,-100.00,ENE,60,5.0,9.0,37,0.00,,,0.00,,2013-07-22 17:32:00,
2013-07-22 11:34:00,81.0,49.0,-100.00,NNE,21,7.0,10.0,33,0.00,,,0.00,,2013-07-22 17:34:00,
2013-07-22 12:04:00,81.0,49.0,-100.00,NNE,21,7.0,10.0,33,0.00,,,0.00,,2013-07-22 18:04:00,
2013-07-22 12:14:00,81.0,49.0,-100.00,NNE,21,7.0,10.0,33,0.00,,,0.00,,2013-07-22 18:14:00,
2013-07-22 12:25:00,81.0,49.0,-100.00,NNE,21,7.0,10.0,33,0.00,,,0.00,,2013-07-22 18:25:00,
2013-07-22 12:34:00,84.0,49.0,-100.00,NE,46,7.0,17.0,30,0.00,,,0.00,,2013-07-22 18:34:00,
2013-07-22 13:05:00,84.0,49.0,-100.00,NE,46,7.0,17.0,30,0.00,,,0.00,,2013-07-22 19:05:00,
2013-07-22 13:15:00,84.0,49.0,-100.00,NE,46,7.0,17.0,30,0.00,,,0.00,,2013-07-22 19:15:00,
2013-07-22 13:23:00,84.0,49.0,-100.00,NE,46,7.0,17.0,30,0.00,,,0.00,,2013-07-22 19:23:00,
2013-07-22 13:55:00,86.0,50.0,-100.00,NE,43,8.0,15.0,29,0.00,,,0.00,,2013-07-22 19:55:00,
2013-07-22 14:04:00,86.0,50.0,-100.00,NE,43,8.0,15.0,29,0.00,,,0.00,,2013-07-22 20:04:00,
2013-07-22 14:15:00,86.0,50.0,-100.00,NE,43,8.0,15.0,29,0.00,,,0.00,,2013-07-22 20:15:00,
2013-07-22 14:22:00,86.0,50.0,-100.00,NE,43,8.0,15.0,29,0.00,,,0.00,,2013-07-22 20:22:00,
2013-07-22 14:32:00,86.0,50.0,-100.00,NE,43,8.0,15.0,29,0.00,,,0.00,,2013-07-22 20:32:00,
2013-07-22 14:52:00,88.0,49.0,-100.00,NNE,32,9.0,15.0,26,0.00,,,0.00,,2013-07-22 20:52:00,
2013-07-22 15:01:00,88.0,49.0,-100.00,NNE,32,9.0,15.0,26,0.00,,,0.00,,2013-07-22 21:01:00,
2013-07-22 15:12:00,88.0,49.0,-100.00,NNE,32,9.0,15.0,26,0.00,,,0.00,,2013-07-22 21:12:00,
2013-07-22 15:22:00,88.0,49.0,-100.00,NNE,32,9.0,15.0,26,0.00,,,0.00,,2013-07-22 21:22:00,
2013-07-22 15:32:00,88.0,49.0,-100.00,NNE,32,9.0,15.0,26,0.00,,,0.00,,2013-07-22 21:32:00,
2013-07-22 16:01:00,84.0,40.0,-100.00,South,191,14.0,22.0,21,0.00,,,0.00,,2013-07-22 22:01:00,
2013-07-22 16:11:00,84.0,40.0,-100.00,South,191,14.0,22.0,21,0.00,,,0.00,,2013-07-22 22:11:00,
2013-07-22 16:22:00,84.0,40.0,-100.00,South,191,14.0,22.0,21,0.00,,,0.00,,2013-07-22 22:22:00,
2013-07-22 16:32:00,84.0,40.0,-100.00,South,191,14.0,22.0,21,0.00,,,0.00,,2013-07-22 22:32:00,
2013-07-22 17:01:00,78.0,40.0,-100.00,SSE,168,13.0,24.0,26,0.00,,,-99.99,,2013-07-22 23:01:00,
2013-07-22 19:01:00,81.0,45.0,-100.00,WSW,256,7.0,14.0,28,-99.99,,,0.00,,2013-07-23 01:01:00,
2013-07-22 19:11:00,81.0,45.0,-100.00,WSW,256,7.0,14.0,28,-99.99,,,0.00,,2013-07-23 01:11:00,
2013-07-22 19:22:00,81.0,45.0,-100.00,WSW,256,7.0,14.0,28,-99.99,,,0.00,,2013-07-23 01:22:00,
2013-07-22 19:32:00,81.0,45.0,-100.00,WSW,256,7.0,14.0,28,-99.99,,,0.00,,2013-07-23 01:32:00,
2013-07-22 20:02:00,78.0,45.0,-100.00,WSW,237,1.0,9.0,31,0.00,,,0.00,,2013-07-23 02:02:00,
2013-07-22 20:11:00,78.0,45.0,-100.00,WSW,237,1.0,9.0,31,0.00,,,0.00,,2013-07-23 02:11:00,
2013-07-22 20:22:00,78.0,45.0,-100.00,WSW,237,1.0,9.0,31,0.00,,,0.00,,2013-07-23 02:22:00,
2013-07-22 20:33:00,78.0,45.0,-100.00,WSW,237,1.0,9.0,31,0.00,,,0.00,,2013-07-23 02:33:00,
2013-07-22 21:01:00,74.0,42.0,-100.00,WSW,242,4.0,7.0,32,0.00,,,-99.99,,2013-07-23 03:01:00,
2013-07-22 21:11:00,74.0,42.0,-100.00,WSW,242,4.0,7.0,32,0.00,,,-99.99,,2013-07-23 03:11:00,
2013-07-22 21:22:00,74.0,42.0,-100.00,WSW,242,4.0,7.0,32,0.00,,,-99.99,,2013-07-23 03:22:00,
2013-07-22 21:33:00,74.0,42.0,-100.00,WSW,242,4.0,7.0,32,0.00,,,-99.99,,2013-07-23 03:33:00,
2013-07-22 22:01:00,71.0,43.0,-100.00,West,275,2.0,5.0,37,0.00,,,0.00,,2013-07-23 04:01:00,
2013-07-22 22:11:00,71.0,43.0,-100.00,West,275,2.0,5.0,37,0.00,,,0.00,,2013-07-23 04:11:00,
2013-07-22 22:21:00,71.0,43.0,-100.00,West,275,2.0,5.0,37,0.00,,,0.00,,2013-07-23 04:21:00,
2013-07-22 22:32:00,71.0,43.0,-100.00,West,275,2.0,5.0,37,0.00,,,0.00,,2013-07-23 04:32:00,
2013-07-22 23:02:00,71.0,42.0,-100.00,SW,218,2.0,4.0,35,0.00,,,0.00,,2013-07-23 05:02:00,
2013-07-22 23:11:00,71.0,42.0,-100.00,SW,218,2.0,4.0,35,0.00,,,0.00,,2013-07-23 05:11:00,
2013-07-22 23:22:00,71.0,42.0,-100.00,SW,218,2.0,4.0,35,0.00,,,0.00,,2013-07-23 05:22:00,
2013-07-22 23:33:00,71.0,42.0,-100.00,SW,218,2.0,4.0,35,0.00,,,0.00,,2013-07-23 05:33:00,